Time;durP1;ratioP1;P1;durP2;ratioP2;P2;SDS_P1;SDS_P2;PMS_P1;PMS_P2;Temp;Humidity;BMP_temperature;BMP_pressure;BME280_temperature;BME280_humidity;BME280_pressure;Samples;Min_cycle;Max_cycle;Signal;HPM_P1;HPM_P2
2023/06/05 00:45:44;;;;;;;1999.90;999.90;;;;;;;;;;5992240;23;20884;-73
2023/06/05 00:48:29;;;;;;;1999.90;999.90;;;;;;;;;;4906459;29;20812;-73
2023/06/05 00:51:15;;;;;;;1999.90;999.90;;;;;;;;;;4911110;29;20213;-74
2023/06/05 00:54:00;;;;;;;1999.90;999.90;;;;;;;;;;4911694;29;20330;-74
2023/06/05 00:56:45;;;;;;;1999.90;999.90;;;;;;;;;;4907707;29;20238;-74
2023/06/05 00:59:31;;;;;;;1999.90;999.90;;;;;;;;;;4906330;29;20350;-74
2023/06/05 01:02:18;;;;;;;1999.90;999.90;;;;;;;;;;4891332;29;20211;-74
2023/06/05 01:05:03;;;;;;;1999.90;999.90;;;;;;;;;;4895887;29;20260;-74
2023/06/05 01:07:49;;;;;;;1999.90;999.90;;;;;;;;;;4899820;29;20274;-74
2023/06/05 01:10:33;;;;;;;1999.90;999.90;;;;;;;;;;4907735;29;20475;-74
2023/06/05 01:13:25;;;;;;;1999.90;999.90;;;;;;;;;;4916416;29;20783;-74
2023/06/05 01:16:12;;;;;;;1999.90;999.90;;;;;;;;;;4915846;29;20270;-74
2023/06/05 01:19:02;;;;;;;1999.90;999.90;;;;;;;;;;4906193;29;20211;-75
2023/06/05 01:21:47;;;;;;;1999.90;999.90;;;;;;;;;;4896030;29;20598;-74
2023/06/05 01:24:35;;;;;;;1999.90;999.90;;;;;;;;;;4897699;29;20214;-74
2023/06/05 01:27:26;;;;;;;1999.90;999.90;;;;;;;;;;4905682;29;20494;-74
2023/06/05 01:30:16;;;;;;;1999.90;999.90;;;;;;;;;;4892673;29;20207;-74
2023/06/05 01:33:03;;;;;;;1999.90;999.90;;;;;;;;;;4898401;29;20207;-74
2023/06/05 01:35:51;;;;;;;1999.90;999.90;;;;;;;;;;4898094;29;21091;-74
2023/06/05 01:38:36;;;;;;;1999.90;999.90;;;;;;;;;;4898718;29;20214;-74
2023/06/05 01:41:22;;;;;;;1999.90;999.90;;;;;;;;;;4904477;29;20236;-73
2023/06/05 01:44:08;;;;;;;1999.90;999.90;;;;;;;;;;4896626;29;20614;-74
2023/06/05 01:46:53;;;;;;;1999.90;999.90;;;;;;;;;;4898593;29;20238;-74
2023/06/05 01:49:38;;;;;;;1999.90;999.90;;;;;;;;;;4901086;29;20221;-74
2023/06/05 01:52:23;;;;;;;1999.90;999.90;;;;;;;;;;4902481;29;20342;-74
2023/06/05 01:55:14;;;;;;;1999.90;999.90;;;;;;;;;;4895725;29;20356;-74
2023/06/05 01:58:01;;;;;;;1999.90;999.90;;;;;;;;;;4882241;29;20301;-74
2023/06/05 02:00:46;;;;;;;1999.90;999.90;;;;;;;;;;4906711;29;20444;-73
2023/06/05 02:03:31;;;;;;;1999.90;999.90;;;;;;;;;;4916939;29;20259;-74
2023/06/05 02:06:16;;;;;;;1999.90;999.90;;;;;;;;;;4916586;29;20252;-74
2023/06/05 02:09:01;;;;;;;1999.90;999.90;;;;;;;;;;4900960;29;20217;-74
2023/06/05 02:11:47;;;;;;;1999.90;999.90;;;;;;;;;;4890537;29;20380;-75
2023/06/05 02:14:35;;;;;;;1999.90;999.90;;;;;;;;;;4891337;29;20214;-74
2023/06/05 02:17:20;;;;;;;1999.90;999.90;;;;;;;;;;4903314;29;20971;-74
2023/06/05 02:20:06;;;;;;;1999.90;999.90;;;;;;;;;;4890944;29;20369;-74
2023/06/05 02:22:52;;;;;;;1999.90;999.90;;;;;;;;;;4897613;29;20217;-74
2023/06/05 02:25:36;;;;;;;1999.90;999.90;;;;;;;;;;4897219;29;20514;-74
2023/06/05 02:28:21;;;;;;;1999.90;999.90;;;;;;;;;;4892127;29;20210;-74
2023/06/05 02:31:08;;;;;;;1999.90;999.90;;;;;;;;;;4905223;29;20277;-74
2023/06/05 02:33:54;;;;;;;1999.90;999.90;;;;;;;;;;4911314;29;20242;-74
2023/06/05 02:36:40;;;;;;;1999.90;999.90;;;;;;;;;;4901527;29;20739;-74
2023/06/05 02:39:26;;;;;;;1999.90;999.90;;;;;;;;;;4906538;29;20269;-73
2023/06/05 02:42:12;;;;;;;1999.90;999.90;;;;;;;;;;4910214;29;20289;-74
2023/06/05 02:44:57;;;;;;;1999.90;999.90;;;;;;;;;;4908162;29;20283;-74
2023/06/05 02:47:43;;;;;;;1999.90;999.90;;;;;;;;;;4914181;29;20246;-74
2023/06/05 02:50:28;;;;;;;1999.90;999.90;;;;;;;;;;4901807;29;20472;-74
2023/06/05 02:53:15;;;;;;;1999.90;999.90;;;;;;;;;;4878471;29;20594;-74
2023/06/05 02:56:01;;;;;;;1999.90;999.90;;;;;;;;;;4908213;29;20230;-74
2023/06/05 02:58:46;;;;;;;1999.90;999.90;;;;;;;;;;4905953;29;20223;-73
2023/06/05 03:01:34;;;;;;;1999.90;999.90;;;;;;;;;;4904271;29;20726;-74
2023/06/05 03:04:21;;;;;;;1999.90;999.90;;;;;;;;;;4894455;29;20220;-74
2023/06/05 03:07:09;;;;;;;1999.90;999.90;;;;;;;;;;4908329;29;20516;-74
2023/06/05 03:09:54;;;;;;;1999.90;999.90;;;;;;;;;;4899537;29;20579;-74
2023/06/05 03:12:39;;;;;;;1999.90;999.90;;;;;;;;;;4911693;29;20226;-73
2023/06/05 03:15:24;;;;;;;1999.90;999.90;;;;;;;;;;4900046;29;20286;-74
2023/06/05 03:18:09;;;;;;;1999.90;999.90;;;;;;;;;;4891898;29;20261;-74
2023/06/05 03:20:56;;;;;;;1999.90;999.90;;;;;;;;;;4906588;29;20255;-74
2023/06/05 03:23:41;;;;;;;1999.90;999.90;;;;;;;;;;4911663;29;20584;-74
2023/06/05 03:26:26;;;;;;;1999.90;999.90;;;;;;;;;;4911493;29;20245;-74
2023/06/05 03:29:11;;;;;;;1999.90;999.90;;;;;;;;;;4905730;29;20214;-74
2023/06/05 03:31:56;;;;;;;1999.90;999.90;;;;;;;;;;4915061;29;20280;-74
2023/06/05 03:34:42;;;;;;;1999.90;999.90;;;;;;;;;;4905105;29;20683;-74
2023/06/05 03:37:29;;;;;;;1999.90;999.90;;;;;;;;;;4884351;29;20657;-74
2023/06/05 03:40:14;;;;;;;1999.90;999.90;;;;;;;;;;4898586;29;20224;-74
2023/06/05 03:42:59;;;;;;;1999.90;999.90;;;;;;;;;;4893304;29;25112;-74
2023/06/05 03:45:44;;;;;;;1999.90;999.90;;;;;;;;;;4901560;29;20464;-74
2023/06/05 03:48:29;;;;;;;1999.90;999.90;;;;;;;;;;4902997;29;20331;-74
2023/06/05 03:51:18;;;;;;;1999.90;999.90;;;;;;;;;;4903711;29;20729;-74
2023/06/05 03:54:05;;;;;;;1999.90;999.90;;;;;;;;;;4898332;29;20224;-74
2023/06/05 03:56:52;;;;;;;1999.90;999.90;;;;;;;;;;4894031;29;20614;-74
2023/06/05 03:59:37;;;;;;;1999.90;999.90;;;;;;;;;;4904464;29;20342;-74
2023/06/05 04:02:22;;;;;;;1999.90;999.90;;;;;;;;;;4901619;29;20210;-75
2023/06/05 04:05:11;;;;;;;1999.90;999.90;;;;;;;;;;4907537;29;20214;-74
2023/06/05 04:07:56;;;;;;;1999.90;999.90;;;;;;;;;;4897008;29;20266;-74
2023/06/05 04:10:42;;;;;;;1999.90;999.90;;;;;;;;;;4912451;29;20713;-74
2023/06/05 04:13:27;;;;;;;1999.90;999.90;;;;;;;;;;4899036;29;20800;-74
2023/06/05 04:16:13;;;;;;;1999.90;999.90;;;;;;;;;;4904841;29;20230;-74
2023/06/05 04:18:58;;;;;;;1999.90;999.90;;;;;;;;;;4910065;29;20210;-74
2023/06/05 04:21:43;;;;;;;1999.90;999.90;;;;;;;;;;4910031;29;20229;-74
2023/06/05 04:24:29;;;;;;;1999.90;999.90;;;;;;;;;;4910877;29;20294;-72
2023/06/05 04:27:16;;;;;;;1999.90;999.90;;;;;;;;;;4907996;29;20230;-73
2023/06/05 04:30:02;;;;;;;1999.90;999.90;;;;;;;;;;4902916;29;20460;-73
2023/06/05 04:32:54;;;;;;;1999.90;999.90;;;;;;;;;;4893932;29;20219;-72
2023/06/05 04:35:38;;;;;;;1999.90;999.90;;;;;;;;;;4892450;29;20226;-73
2023/06/05 04:38:23;;;;;;;1999.90;999.90;;;;;;;;;;4907553;29;20587;-73
2023/06/05 04:41:09;;;;;;;1999.90;999.90;;;;;;;;;;4904251;29;20224;-73
2023/06/05 04:43:57;;;;;;;1999.90;999.90;;;;;;;;;;4900904;29;20718;-73
2023/06/05 04:46:43;;;;;;;1999.90;999.90;;;;;;;;;;4899472;29;20823;-71
2023/06/05 04:49:28;;;;;;;1999.90;999.90;;;;;;;;;;4907428;29;20217;-73
2023/06/05 04:52:14;;;;;;;1999.90;999.90;;;;;;;;;;4902884;29;20641;-73
2023/06/05 04:54:59;;;;;;;1999.90;999.90;;;;;;;;;;4916871;29;20293;-73
2023/06/05 04:57:45;;;;;;;1999.90;999.90;;;;;;;;;;4918042;29;20234;-72
2023/06/05 05:00:31;;;;;;;1999.90;999.90;;;;;;;;;;4904221;29;20231;-73
2023/06/05 05:03:17;;;;;;;1999.90;999.90;;;;;;;;;;4904418;29;20214;-72
2023/06/05 05:06:02;;;;;;;1999.90;999.90;;;;;;;;;;4888261;29;20711;-72
2023/06/05 05:08:49;;;;;;;1999.90;999.90;;;;;;;;;;4889399;29;20223;-73
2023/06/05 05:11:34;;;;;;;1999.90;999.90;;;;;;;;;;4895517;29;20794;-72
2023/06/05 05:14:18;;;;;;;1999.90;999.90;;;;;;;;;;4900023;29;20206;-72
2023/06/05 05:17:05;;;;;;;1999.90;999.90;;;;;;;;;;4894733;29;20236;-72
2023/06/05 05:19:50;;;;;;;1999.90;999.90;;;;;;;;;;4898224;29;20228;-73
2023/06/05 05:22:35;;;;;;;1999.90;999.90;;;;;;;;;;4904946;29;20964;-73
2023/06/05 05:25:20;;;;;;;1999.90;999.90;;;;;;;;;;4900427;29;20483;-72
2023/06/05 05:28:04;;;;;;;1999.90;999.90;;;;;;;;;;4894446;29;20267;-72
2023/06/05 05:30:49;;;;;;;1999.90;999.90;;;;;;;;;;4902757;29;20242;-72
2023/06/05 05:33:35;;;;;;;1999.90;999.90;;;;;;;;;;4898693;29;20218;-74
2023/06/05 05:36:20;;;;;;;1999.90;999.90;;;;;;;;;;4903970;29;20253;-72
2023/06/05 05:39:07;;;;;;;1999.90;999.90;;;;;;;;;;4891239;29;20626;-73
2023/06/05 05:41:52;;;;;;;1999.90;999.90;;;;;;;;;;4898104;29;20246;-68
2023/06/05 05:44:37;;;;;;;1999.90;999.90;;;;;;;;;;4899841;29;20215;-72
2023/06/05 05:47:22;;;;;;;1999.90;999.90;;;;;;;;;;4906076;29;20250;-73
2023/06/05 05:50:09;;;;;;;1999.90;999.90;;;;;;;;;;4895427;29;20206;-75
2023/06/05 05:52:54;;;;;;;1999.90;999.90;;;;;;;;;;4899202;29;20210;-74
2023/06/05 05:55:39;;;;;;;1999.90;999.90;;;;;;;;;;4898141;29;20626;-74
2023/06/05 05:58:24;;;;;;;1999.90;999.90;;;;;;;;;;4901236;29;20315;-74
2023/06/05 06:01:09;;;;;;;1999.90;999.90;;;;;;;;;;4897772;29;20363;-72
2023/06/05 06:03:54;;;;;;;1999.90;999.90;;;;;;;;;;4898088;29;20306;-73
2023/06/05 06:06:40;;;;;;;1999.90;999.90;;;;;;;;;;4898059;29;20606;-73
2023/06/05 06:09:26;;;;;;;1999.90;999.90;;;;;;;;;;4898050;29;20715;-70
2023/06/05 06:12:11;;;;;;;1999.90;999.90;;;;;;;;;;4904141;29;20211;-72
2023/06/05 06:14:56;;;;;;;1999.90;999.90;;;;;;;;;;4907925;29;20222;-74
2023/06/05 06:17:41;;;;;;;1999.90;999.90;;;;;;;;;;4895063;29;20246;-73
2023/06/05 06:20:28;;;;;;;1999.90;999.90;;;;;;;;;;4897548;29;20705;-73
2023/06/05 06:23:14;;;;;;;1999.90;999.90;;;;;;;;;;4893625;29;20207;-73
2023/06/05 06:25:59;;;;;;;1999.90;999.90;;;;;;;;;;4889789;29;20738;-73
2023/06/05 06:28:44;;;;;;;1999.90;999.90;;;;;;;;;;4895544;29;20799;-75
2023/06/05 06:31:29;;;;;;;1999.90;999.90;;;;;;;;;;4892885;29;20765;-73
2023/06/05 06:34:14;;;;;;;1999.90;999.90;;;;;;;;;;4891493;29;20732;-73
2023/06/05 06:36:59;;;;;;;1999.90;999.90;;;;;;;;;;4897057;29;20633;-70
2023/06/05 06:39:46;;;;;;;1999.90;999.90;;;;;;;;;;4897524;29;20233;-73
2023/06/05 06:42:31;;;;;;;1999.90;999.90;;;;;;;;;;4898932;29;20238;-74
2023/06/05 06:45:17;;;;;;;1999.90;999.90;;;;;;;;;;4893874;29;20715;-74
2023/06/05 06:48:02;;;;;;;1999.90;999.90;;;;;;;;;;4896672;29;20422;-74
2023/06/05 06:50:47;;;;;;;1999.90;999.90;;;;;;;;;;4902798;29;20581;-69
2023/06/05 06:53:32;;;;;;;1999.90;999.90;;;;;;;;;;4895403;29;20219;-73
2023/06/05 06:56:18;;;;;;;1999.90;999.90;;;;;;;;;;4899980;29;20743;-74
2023/06/05 06:59:11;;;;;;;1999.90;999.90;;;;;;;;;;4901329;29;20213;-73
2023/06/05 07:02:09;;;;;;;1999.90;999.90;;;;;;;;;;4896113;29;20752;-73
2023/06/05 07:04:54;;;;;;;1999.90;999.90;;;;;;;;;;4897955;29;20277;-72
2023/06/05 07:07:39;;;;;;;1999.90;999.90;;;;;;;;;;4894288;29;20238;-72
2023/06/05 07:10:25;;;;;;;1999.90;999.90;;;;;;;;;;4895568;29;20214;-73
2023/06/05 07:13:12;;;;;;;1999.90;999.90;;;;;;;;;;4903276;29;20575;-73
2023/06/05 07:15:57;;;;;;;1999.90;999.90;;;;;;;;;;4897037;29;20298;-72
2023/06/05 07:18:42;;;;;;;1999.90;999.90;;;;;;;;;;4904093;29;20597;-72
2023/06/05 07:21:27;;;;;;;1999.90;999.90;;;;;;;;;;4899073;29;20551;-73
2023/06/05 07:24:12;;;;;;;1999.90;999.90;;;;;;;;;;4897401;29;20707;-71
2023/06/05 07:26:58;;;;;;;1999.90;999.90;;;;;;;;;;4902443;29;20246;-72
2023/06/05 07:29:46;;;;;;;1999.90;999.90;;;;;;;;;;4902839;29;20581;-74
2023/06/05 07:32:31;;;;;;;1999.90;999.90;;;;;;;;;;4903336;29;20214;-72
2023/06/05 07:35:16;;;;;;;1999.90;999.90;;;;;;;;;;4904216;29;20582;-71
2023/06/05 07:38:01;;;;;;;1999.90;999.90;;;;;;;;;;4904552;29;20226;-73
2023/06/05 07:40:46;;;;;;;1999.90;999.90;;;;;;;;;;4902201;29;20601;-74
2023/06/05 07:43:31;;;;;;;1999.90;999.90;;;;;;;;;;4902092;29;20210;-72
2023/06/05 07:46:17;;;;;;;1999.90;999.90;;;;;;;;;;4902383;29;20246;-72
2023/06/05 07:49:03;;;;;;;1999.90;999.90;;;;;;;;;;4900685;29;20286;-73
2023/06/05 07:51:49;;;;;;;1999.90;999.90;;;;;;;;;;4903388;29;20628;-75
2023/06/05 07:54:34;;;;;;;1999.90;999.90;;;;;;;;;;4903195;29;20707;-73
2023/06/05 07:57:19;;;;;;;1999.90;999.90;;;;;;;;;;4905044;29;20314;-74
2023/06/05 08:00:09;;;;;;;1999.90;999.90;;;;;;;;;;4897355;29;20217;-76
2023/06/05 08:02:57;;;;;;;1999.90;999.90;;;;;;;;;;4901159;29;20457;-75
2023/06/05 08:05:43;;;;;;;1999.90;999.90;;;;;;;;;;4900579;29;20784;-73
2023/06/05 08:08:28;;;;;;;1999.90;999.90;;;;;;;;;;4899166;29;20219;-73
2023/06/05 08:11:13;;;;;;;1999.90;999.90;;;;;;;;;;4902053;29;20730;-76
2023/06/05 08:13:58;;;;;;;1999.90;999.90;;;;;;;;;;4900811;29;20226;-73
2023/06/05 08:16:43;;;;;;;1999.90;999.90;;;;;;;;;;4899641;29;20242;-74
2023/06/05 08:19:29;;;;;;;1999.90;999.90;;;;;;;;;;4898346;29;20211;-73
2023/06/05 08:22:14;;;;;;;1999.90;999.90;;;;;;;;;;4898159;29;20226;-74
2023/06/05 08:25:00;;;;;;;1999.90;999.90;;;;;;;;;;4905056;29;20959;-74
2023/06/05 08:27:44;;;;;;;1999.90;999.90;;;;;;;;;;4896847;29;20250;-73
2023/06/05 08:30:29;;;;;;;1999.90;999.90;;;;;;;;;;4903893;29;20223;-74
2023/06/05 08:33:14;;;;;;;1999.90;999.90;;;;;;;;;;4881209;29;20333;-74
2023/06/05 08:36:01;;;;;;;1999.90;999.90;;;;;;;;;;4904169;29;20250;-73
2023/06/05 08:38:45;;;;;;;1999.90;999.90;;;;;;;;;;4900804;29;20330;-74
2023/06/05 08:41:31;;;;;;;1999.90;999.90;;;;;;;;;;4903750;29;20230;-73
2023/06/05 08:44:16;;;;;;;1999.90;999.90;;;;;;;;;;4890974;29;20264;-73
2023/06/05 08:47:02;;;;;;;1999.90;999.90;;;;;;;;;;4898686;29;20788;-74
2023/06/05 08:49:47;;;;;;;1999.90;999.90;;;;;;;;;;4890374;29;20805;-74
2023/06/05 08:52:35;;;;;;;1999.90;999.90;;;;;;;;;;4903336;29;20706;-74
2023/06/05 08:55:21;;;;;;;1999.90;999.90;;;;;;;;;;4890994;29;20214;-75
2023/06/05 08:58:07;;;;;;;1999.90;999.90;;;;;;;;;;4880579;29;20574;-74
2023/06/05 09:00:53;;;;;;;1999.90;999.90;;;;;;;;;;4894040;29;20708;-74
2023/06/05 09:03:38;;;;;;;1999.90;999.90;;;;;;;;;;4898714;29;20330;-75
2023/06/05 09:06:23;;;;;;;1999.90;999.90;;;;;;;;;;4887886;29;20243;-75
2023/06/05 09:09:09;;;;;;;1999.90;999.90;;;;;;;;;;4896495;29;20218;-75
2023/06/05 09:12:05;;;;;;;1999.90;999.90;;;;;;;;;;4904544;29;20215;-75
2023/06/05 09:14:50;;;;;;;1999.90;999.90;;;;;;;;;;4895305;29;20461;-74
2023/06/05 09:17:35;;;;;;;1999.90;999.90;;;;;;;;;;4905908;29;20230;-75
2023/06/05 09:20:24;;;;;;;1999.90;999.90;;;;;;;;;;4902505;29;20213;-74
2023/06/05 09:23:24;;;;;;;1999.90;999.90;;;;;;;;;;4898511;29;20301;-74
2023/06/05 09:26:12;;;;;;;1999.90;999.90;;;;;;;;;;4900654;29;20231;-74
2023/06/05 09:28:57;;;;;;;1999.90;999.90;;;;;;;;;;4898132;29;20230;-74
2023/06/05 09:31:43;;;;;;;1999.90;999.90;;;;;;;;;;4904000;29;20222;-75
2023/06/05 09:34:28;;;;;;;1999.90;999.90;;;;;;;;;;4900491;29;20234;-75
2023/06/05 09:37:14;;;;;;;1999.90;999.90;;;;;;;;;;4898166;29;20462;-76
2023/06/05 09:39:59;;;;;;;1999.90;999.90;;;;;;;;;;4898475;29;20724;-75
2023/06/05 09:42:45;;;;;;;1999.90;999.90;;;;;;;;;;4911518;29;20313;-74
2023/06/05 09:45:41;;;;;;;1999.90;999.90;;;;;;;;;;4901929;29;20223;-75
2023/06/05 09:48:27;;;;;;;1999.90;999.90;;;;;;;;;;4894832;29;20579;-73
2023/06/05 09:51:12;;;;;;;1999.90;999.90;;;;;;;;;;4901902;29;20215;-73
2023/06/05 09:53:58;;;;;;;1999.90;999.90;;;;;;;;;;4899708;29;20221;-73
2023/06/05 09:56:46;;;;;;;1999.90;999.90;;;;;;;;;;4902760;29;20450;-73
2023/06/05 09:59:33;;;;;;;1999.90;999.90;;;;;;;;;;4900549;29;20222;-75
2023/06/05 10:02:19;;;;;;;1999.90;999.90;;;;;;;;;;4901769;29;20250;-74
2023/06/05 10:05:06;;;;;;;1999.90;999.90;;;;;;;;;;4898057;29;20255;-74
2023/06/05 10:07:54;;;;;;;1999.90;999.90;;;;;;;;;;4892057;29;20219;-74
2023/06/05 10:10:39;;;;;;;1999.90;999.90;;;;;;;;;;4896319;29;20445;-73
2023/06/05 10:13:24;;;;;;;1999.90;999.90;;;;;;;;;;4905504;29;20206;-73
2023/06/05 10:16:10;;;;;;;1999.90;999.90;;;;;;;;;;4897812;29;20318;-74
2023/06/05 10:18:56;;;;;;;1999.90;999.90;;;;;;;;;;4897652;29;20240;-73
2023/06/05 10:21:41;;;;;;;1999.90;999.90;;;;;;;;;;4897516;29;20699;-74
2023/06/05 10:24:29;;;;;;;1999.90;999.90;;;;;;;;;;4904224;29;20305;-72
2023/06/05 10:27:21;;;;;;;1999.90;999.90;;;;;;;;;;4901035;29;20903;-70
2023/06/05 10:30:27;;;;;;;1999.90;999.90;;;;;;;;;;4908498;29;20286;-71
2023/06/05 10:33:21;;;;;;;1999.90;999.90;;;;;;;;;;4898810;29;20219;-71
2023/06/05 10:36:11;;;;;;;1999.90;999.90;;;;;;;;;;4881177;29;20234;-71
2023/06/05 10:39:00;;;;;;;1999.90;999.90;;;;;;;;;;4895837;29;20259;-70
2023/06/05 10:41:45;;;;;;;1999.90;999.90;;;;;;;;;;4906185;29;20217;-71
2023/06/05 10:44:39;;;;;;;1999.90;999.90;;;;;;;;;;4916048;29;20214;-72
2023/06/05 10:47:43;;;;;;;1999.90;999.90;;;;;;;;;;4878342;29;20369;-71
2023/06/05 10:50:31;;;;;;;1999.90;999.90;;;;;;;;;;4900423;29;20337;-69
2023/06/05 10:53:42;;;;;;;1999.90;999.90;;;;;;;;;;4878712;29;20215;-72
2023/06/05 10:56:46;;;;;;;1999.90;999.90;;;;;;;;;;4899260;29;20732;-72
2023/06/05 10:59:31;;;;;;;1999.90;999.90;;;;;;;;;;4903138;29;20632;-72
2023/06/05 11:02:23;;;;;;;1999.90;999.90;;;;;;;;;;4878280;29;20227;-71
2023/06/05 11:05:11;;;;;;;1999.90;999.90;;;;;;;;;;4888129;29;20218;-73
2023/06/05 11:08:15;;;;;;;1999.90;999.90;;;;;;;;;;4896056;29;20294;-73
2023/06/05 11:11:03;;;;;;;1999.90;999.90;;;;;;;;;;4893659;29;20585;-73
2023/06/05 11:13:55;;;;;;;1999.90;999.90;;;;;;;;;;4896182;29;20441;-72
2023/06/05 11:16:40;;;;;;;1999.90;999.90;;;;;;;;;;4897062;29;20356;-74
2023/06/05 11:19:38;;;;;;;1999.90;999.90;;;;;;;;;;4901610;29;20219;-73
2023/06/05 11:22:23;;;;;;;1999.90;999.90;;;;;;;;;;4888863;29;20307;-72
2023/06/05 11:25:28;;;;;;;1999.90;999.90;;;;;;;;;;4896678;29;20217;-72
2023/06/05 11:28:13;;;;;;;1999.90;999.90;;;;;;;;;;4896598;29;20227;-73
2023/06/05 11:30:58;;;;;;;1999.90;999.90;;;;;;;;;;4896462;29;20652;-72
2023/06/05 11:33:43;;;;;;;1999.90;999.90;;;;;;;;;;4904319;29;20715;-72
2023/06/05 11:36:28;;;;;;;1999.90;999.90;;;;;;;;;;4896565;29;20259;-73
2023/06/05 11:39:13;;;;;;;1999.90;999.90;;;;;;;;;;4896439;29;20710;-73
2023/06/05 11:41:59;;;;;;;1999.90;999.90;;;;;;;;;;4896124;29;20221;-72
2023/06/05 11:44:45;;;;;;;1999.90;999.90;;;;;;;;;;4902098;29;20218;-73
2023/06/05 11:47:30;;;;;;;1999.90;999.90;;;;;;;;;;4895319;29;20453;-71
2023/06/05 11:50:15;;;;;;;1999.90;999.90;;;;;;;;;;4888500;29;20214;-72
2023/06/05 11:53:07;;;;;;;1999.90;999.90;;;;;;;;;;4906949;29;20322;-72
2023/06/05 11:56:06;;;;;;;1999.90;999.90;;;;;;;;;;4889733;29;20268;-72
2023/06/05 11:58:52;;;;;;;1999.90;999.90;;;;;;;;;;4900447;29;20209;-72
2023/06/05 12:01:40;;;;;;;1999.90;999.90;;;;;;;;;;4912030;29;20214;-72
2023/06/05 12:04:26;;;;;;;1999.90;999.90;;;;;;;;;;4914460;29;20447;-72
2023/06/05 12:07:12;;;;;;;1999.90;999.90;;;;;;;;;;4902595;29;20325;-71
2023/06/05 12:09:58;;;;;;;1999.90;999.90;;;;;;;;;;4905866;29;20226;-73
2023/06/05 12:12:50;;;;;;;1999.90;999.90;;;;;;;;;;4915265;29;20212;-72
2023/06/05 12:15:36;;;;;;;1999.90;999.90;;;;;;;;;;4903418;29;20217;-72
2023/06/05 12:18:21;;;;;;;1999.90;999.90;;;;;;;;;;4896194;29;20293;-72
2023/06/05 12:21:07;;;;;;;1999.90;999.90;;;;;;;;;;4901019;29;20212;-73
2023/06/05 12:23:52;;;;;;;1999.90;999.90;;;;;;;;;;4913567;29;20648;-74
2023/06/05 12:26:53;;;;;;;1999.90;999.90;;;;;;;;;;4902698;29;20370;-72
2023/06/05 12:29:39;;;;;;;1999.90;999.90;;;;;;;;;;4884934;29;20212;-73
2023/06/05 12:32:26;;;;;;;1999.90;999.90;;;;;;;;;;4896037;29;20214;-72
2023/06/05 12:35:18;;;;;;;1999.90;999.90;;;;;;;;;;4901824;29;20212;-73
2023/06/05 12:38:03;;;;;;;1999.90;999.90;;;;;;;;;;4909909;29;20408;-73
2023/06/05 12:40:48;;;;;;;1999.90;999.90;;;;;;;;;;4891288;29;20718;-72
2023/06/05 12:43:33;;;;;;;1999.90;999.90;;;;;;;;;;4899202;29;20248;-72
2023/06/05 12:46:18;;;;;;;1999.90;999.90;;;;;;;;;;4898398;29;20743;-72
2023/06/05 12:49:05;;;;;;;1999.90;999.90;;;;;;;;;;4899035;29;20232;-73
2023/06/05 12:51:51;;;;;;;1999.90;999.90;;;;;;;;;;4897357;29;20333;-72
2023/06/05 12:54:36;;;;;;;1999.90;999.90;;;;;;;;;;4904415;29;20912;-73
2023/06/05 12:57:21;;;;;;;1999.90;999.90;;;;;;;;;;4900464;29;20233;-73
2023/06/05 13:00:12;;;;;;;1999.90;999.90;;;;;;;;;;4899602;29;20212;-72
2023/06/05 13:02:57;;;;;;;1999.90;999.90;;;;;;;;;;4899087;29;20224;-72
2023/06/05 13:05:44;;;;;;;1999.90;999.90;;;;;;;;;;4899165;29;20546;-72
2023/06/05 13:08:29;;;;;;;1999.90;999.90;;;;;;;;;;4907149;29;20418;-73
2023/06/05 13:11:14;;;;;;;1999.90;999.90;;;;;;;;;;4899429;29;20701;-71
2023/06/05 13:14:00;;;;;;;1999.90;999.90;;;;;;;;;;4898858;29;20213;-71
2023/06/05 13:16:45;;;;;;;1999.90;999.90;;;;;;;;;;4899226;29;20372;-70
2023/06/05 13:19:30;;;;;;;1999.90;999.90;;;;;;;;;;4899407;29;20743;-72
2023/06/05 13:22:16;;;;;;;1999.90;999.90;;;;;;;;;;4898825;29;20216;-72
2023/06/05 13:25:02;;;;;;;1999.90;999.90;;;;;;;;;;4898670;29;20698;-70
2023/06/05 13:27:47;;;;;;;1999.90;999.90;;;;;;;;;;4906605;29;20248;-72
2023/06/05 13:30:32;;;;;;;1999.90;999.90;;;;;;;;;;4905418;29;20732;-71
2023/06/05 13:33:18;;;;;;;1999.90;999.90;;;;;;;;;;4880055;29;20343;-72
2023/06/05 13:36:03;;;;;;;1999.90;999.90;;;;;;;;;;4879513;29;20318;-72
2023/06/05 13:38:49;;;;;;;1999.90;999.90;;;;;;;;;;4896406;29;20340;-72
2023/06/05 13:41:36;;;;;;;1999.90;999.90;;;;;;;;;;4898482;29;20213;-72
2023/06/05 13:44:21;;;;;;;1999.90;999.90;;;;;;;;;;4894413;29;20272;-73
2023/06/05 13:47:08;;;;;;;1999.90;999.90;;;;;;;;;;4897619;29;20750;-73
2023/06/05 13:49:54;;;;;;;1999.90;999.90;;;;;;;;;;4898035;29;20228;-73
2023/06/05 13:52:38;;;;;;;1999.90;999.90;;;;;;;;;;4895138;29;20213;-72
2023/06/05 13:55:25;;;;;;;1999.90;999.90;;;;;;;;;;4896720;29;20274;-73
2023/06/05 13:58:11;;;;;;;1999.90;999.90;;;;;;;;;;4893930;29;20307;-73
2023/06/05 14:00:57;;;;;;;1999.90;999.90;;;;;;;;;;4897235;29;20222;-73
2023/06/05 14:03:42;;;;;;;1999.90;999.90;;;;;;;;;;4890614;29;20315;-73
2023/06/05 14:06:27;;;;;;;1999.90;999.90;;;;;;;;;;4897000;29;20614;-71
2023/06/05 14:09:11;;;;;;;1999.90;999.90;;;;;;;;;;4891223;29;20209;-73
2023/06/05 14:11:57;;;;;;;1999.90;999.90;;;;;;;;;;4897805;29;20277;-73
2023/06/05 14:14:43;;;;;;;1999.90;999.90;;;;;;;;;;4898233;29;20238;-72
2023/06/05 14:17:28;;;;;;;1999.90;999.90;;;;;;;;;;4911604;29;20289;-72
2023/06/05 14:20:13;;;;;;;1999.90;999.90;;;;;;;;;;4892808;29;20283;-73
2023/06/05 14:22:58;;;;;;;1999.90;999.90;;;;;;;;;;4905382;29;20222;-73
2023/06/05 14:25:43;;;;;;;1999.90;999.90;;;;;;;;;;4908724;29;20216;-73
2023/06/05 14:28:30;;;;;;;1999.90;999.90;;;;;;;;;;4916565;29;20210;-73
2023/06/05 14:31:14;;;;;;;1999.90;999.90;;;;;;;;;;4899374;29;20283;-73
2023/06/05 14:33:59;;;;;;;1999.90;999.90;;;;;;;;;;4907074;29;20436;-72
2023/06/05 14:36:49;;;;;;;1999.90;999.90;;;;;;;;;;4916399;29;20726;-73
2023/06/05 14:39:34;;;;;;;1999.90;999.90;;;;;;;;;;4914044;29;20212;-73
2023/06/05 14:42:19;;;;;;;1999.90;999.90;;;;;;;;;;4885460;29;20340;-73
2023/06/05 14:45:06;;;;;;;1999.90;999.90;;;;;;;;;;4892722;29;20302;-73
2023/06/05 14:47:51;;;;;;;1999.90;999.90;;;;;;;;;;4896315;29;20561;-73
2023/06/05 14:50:36;;;;;;;1999.90;999.90;;;;;;;;;;4895737;29;20279;-72
2023/06/05 14:53:21;;;;;;;1999.90;999.90;;;;;;;;;;4896734;29;20202;-73
2023/06/05 14:56:06;;;;;;;1999.90;999.90;;;;;;;;;;4897540;29;20737;-72
2023/06/05 14:58:51;;;;;;;1999.90;999.90;;;;;;;;;;4900767;29;20218;-70
2023/06/05 15:01:38;;;;;;;1999.90;999.90;;;;;;;;;;4912506;29;20226;-70
2023/06/05 15:04:23;;;;;;;1999.90;999.90;;;;;;;;;;4897002;29;20241;-71
2023/06/05 15:07:08;;;;;;;1999.90;999.90;;;;;;;;;;4878816;29;20466;-70
2023/06/05 15:09:53;;;;;;;1999.90;999.90;;;;;;;;;;4905190;29;20648;-72
2023/06/05 15:12:38;;;;;;;1999.90;999.90;;;;;;;;;;4878300;29;20215;-71
2023/06/05 15:15:23;;;;;;;1999.90;999.90;;;;;;;;;;4878429;29;20702;-72
2023/06/05 15:18:09;;;;;;;1999.90;999.90;;;;;;;;;;4878365;29;20266;-72
2023/06/05 15:20:54;;;;;;;1999.90;999.90;;;;;;;;;;4878260;29;20214;-72
2023/06/05 15:23:39;;;;;;;1999.90;999.90;;;;;;;;;;4900350;29;20464;-72
2023/06/05 15:26:24;;;;;;;1999.90;999.90;;;;;;;;;;4885065;29;20490;-70
2023/06/05 15:29:09;;;;;;;1999.90;999.90;;;;;;;;;;4905323;29;20293;-72
2023/06/05 15:31:54;;;;;;;1999.90;999.90;;;;;;;;;;4897372;29;20210;-70
2023/06/05 15:34:40;;;;;;;1999.90;999.90;;;;;;;;;;4897343;29;20203;-69
2023/06/05 15:37:25;;;;;;;1999.90;999.90;;;;;;;;;;4885030;29;20367;-70
2023/06/05 15:40:11;;;;;;;1999.90;999.90;;;;;;;;;;4886538;29;20262;-70
2023/06/05 15:43:04;;;;;;;1999.90;999.90;;;;;;;;;;4907798;29;20216;-71
2023/06/05 15:45:51;;;;;;;1999.90;999.90;;;;;;;;;;4915353;29;20297;-70
2023/06/05 15:48:37;;;;;;;1999.90;999.90;;;;;;;;;;4915473;29;20273;-72
2023/06/05 15:51:27;;;;;;;1999.90;999.90;;;;;;;;;;4915571;29;20220;-70
2023/06/05 15:54:12;;;;;;;1999.90;999.90;;;;;;;;;;4915339;29;20212;-70
2023/06/05 15:57:05;;;;;;;1999.90;999.90;;;;;;;;;;4915412;29;20240;-69
2023/06/05 15:59:50;;;;;;;1999.90;999.90;;;;;;;;;;4915637;29;20212;-71
2023/06/05 16:02:35;;;;;;;1999.90;999.90;;;;;;;;;;4906099;29;20239;-71
2023/06/05 16:05:21;;;;;;;1999.90;999.90;;;;;;;;;;4904048;29;20712;-72
2023/06/05 16:08:07;;;;;;;1999.90;999.90;;;;;;;;;;4915552;29;20213;-71
2023/06/05 16:10:52;;;;;;;1999.90;999.90;;;;;;;;;;4919208;29;20196;-71
2023/06/05 16:13:37;;;;;;;1999.90;999.90;;;;;;;;;;4919061;29;20211;-72